LOT66J LROP-EPKK
Flight info
| Callsign | LOT66J |
|---|---|
| Flight time | 1h 4m |
| Altitude | 40000 |
| Route | SOKRU DCT LARMU DCT KENIN DCT LENOV |
| Aircraft | B789/H-SDE1E2E3FGHIJ2J3J4J5M1RWXY/LB1D1 |
Departure
| Time | 2026-05-05 17:22 |
|---|---|
| Airport | Bucharest Henri Coandă International Airport (LROP) |
Arrival
| Time | 2026-05-05 18:26 |
|---|---|
| Airport | Kraków John Paul II International Airport (EPKK) |
| Time | Latitude | Longitude | Altitude | Speed | Heading |
|---|---|---|---|---|---|
| 2026-05-05 16:48 | 44.57091 | 26.08265 | 322 ft | 0 kts | 264° |
| 2026-05-05 17:10 | 44.57092 | 26.08280 | 321 ft | 4 kts | 267° |
| 2026-05-05 17:10 | 44.57092 | 26.08318 | 321 ft | 4 kts | 266° |
| 2026-05-05 17:10 | 44.57097 | 26.08345 | 322 ft | 2 kts | 230° |
| 2026-05-05 17:10 | 44.57112 | 26.08365 | 321 ft | 4 kts | 199° |
| 2026-05-05 17:11 | 44.57136 | 26.08369 | 321 ft | 4 kts | 174° |
| 2026-05-05 17:11 | 44.57153 | 26.08366 | 321 ft | 1 kts | 174° |
| 2026-05-05 17:11 | 44.57155 | 26.08366 | 321 ft | 0 kts | 174° |
| 2026-05-05 17:12 | 44.57161 | 26.08362 | 321 ft | 6 kts | 107° |
| 2026-05-05 17:12 | 44.57150 | 26.08351 | 321 ft | 0 kts | 3° |
| 2026-05-05 17:14 | 44.57161 | 26.08352 | 322 ft | 3 kts | 3° |
| 2026-05-05 17:15 | 44.57186 | 26.08356 | 323 ft | 3 kts | 12° |
| 2026-05-05 17:15 | 44.57208 | 26.08378 | 322 ft | 6 kts | 46° |
| 2026-05-05 17:15 | 44.57233 | 26.08435 | 322 ft | 7 kts | 59° |
| 2026-05-05 17:15 | 44.57262 | 26.08479 | 322 ft | 5 kts | 26° |
| 2026-05-05 17:16 | 44.57296 | 26.08482 | 324 ft | 9 kts | 0° |
| 2026-05-05 17:16 | 44.57397 | 26.08477 | 322 ft | 18 kts | 354° |
| 2026-05-05 17:16 | 44.57480 | 26.08501 | 323 ft | 6 kts | 57° |
| 2026-05-05 17:16 | 44.57504 | 26.08610 | 325 ft | 18 kts | 82° |
| 2026-05-05 17:17 | 44.57522 | 26.08833 | 324 ft | 28 kts | 83° |
| 2026-05-05 17:17 | 44.57547 | 26.09141 | 325 ft | 33 kts | 83° |
| 2026-05-05 17:17 | 44.57573 | 26.09475 | 326 ft | 34 kts | 84° |
| 2026-05-05 17:17 | 44.57595 | 26.09801 | 324 ft | 33 kts | 84° |
| 2026-05-05 17:18 | 44.57616 | 26.10109 | 325 ft | 31 kts | 84° |
| 2026-05-05 17:18 | 44.57637 | 26.10408 | 324 ft | 30 kts | 82° |
| 2026-05-05 17:18 | 44.57661 | 26.10695 | 325 ft | 29 kts | 83° |
| 2026-05-05 17:18 | 44.57683 | 26.10973 | 322 ft | 28 kts | 84° |
| 2026-05-05 17:19 | 44.57704 | 26.11241 | 323 ft | 27 kts | 84° |
| 2026-05-05 17:19 | 44.57722 | 26.11500 | 323 ft | 26 kts | 84° |
| 2026-05-05 17:19 | 44.57742 | 26.11746 | 325 ft | 25 kts | 84° |
| 2026-05-05 17:19 | 44.57760 | 26.11982 | 326 ft | 24 kts | 84° |
| 2026-05-05 17:20 | 44.57776 | 26.12212 | 324 ft | 23 kts | 84° |
| 2026-05-05 17:20 | 44.57794 | 26.12435 | 324 ft | 23 kts | 83° |
| 2026-05-05 17:20 | 44.57810 | 26.12653 | 325 ft | 22 kts | 84° |
| 2026-05-05 17:20 | 44.57836 | 26.12834 | 321 ft | 9 kts | 51° |
| 2026-05-05 17:21 | 44.57865 | 26.12847 | 322 ft | 6 kts | 358° |
| 2026-05-05 17:21 | 44.57932 | 26.12803 | 321 ft | 15 kts | 326° |
| 2026-05-05 17:21 | 44.57982 | 26.12647 | 322 ft | 22 kts | 263° |
| 2026-05-05 17:22 | 44.57904 | 26.11604 | 325 ft | 112 kts | 264° |
| 2026-05-05 17:22 | 44.57799 | 26.10222 | 329 ft | 170 kts | 263° |
| 2026-05-05 17:22 | 44.57694 | 26.08452 | 786 ft | 191 kts | 265° |
| 2026-05-05 17:22 | 44.57507 | 26.06473 | 1304 ft | 216 kts | 262° |
| 2026-05-05 17:23 | 44.57347 | 26.04370 | 2301 ft | 217 kts | 263° |
| 2026-05-05 17:23 | 44.57185 | 26.02162 | 2798 ft | 249 kts | 263° |
| 2026-05-05 17:23 | 44.57207 | 25.99681 | 2769 ft | 257 kts | 288° |
| 2026-05-05 17:23 | 44.58208 | 25.97610 | 2806 ft | 263 kts | 315° |
| 2026-05-05 17:24 | 44.59538 | 25.95844 | 2801 ft | 263 kts | 315° |
| 2026-05-05 17:24 | 44.60836 | 25.94030 | 2801 ft | 263 kts | 312° |
| 2026-05-05 17:24 | 44.62043 | 25.92122 | 2802 ft | 262 kts | 309° |
| 2026-05-05 17:24 | 44.63239 | 25.90184 | 2800 ft | 262 kts | 310° |
| 2026-05-05 17:25 | 44.64452 | 25.88275 | 2797 ft | 262 kts | 311° |
| 2026-05-05 17:25 | 44.65263 | 25.87007 | 2810 ft | 267 kts | 310° |
| 2026-05-05 17:25 | 44.66878 | 25.84476 | 4475 ft | 256 kts | 311° |
| 2026-05-05 17:25 | 44.68079 | 25.82584 | 5576 ft | 262 kts | 312° |
| 2026-05-05 17:26 | 44.69298 | 25.80664 | 6658 ft | 266 kts | 313° |
| 2026-05-05 17:26 | 44.70527 | 25.78728 | 7759 ft | 266 kts | 313° |
| 2026-05-05 17:26 | 44.71772 | 25.76766 | 8759 ft | 271 kts | 314° |
| 2026-05-05 17:26 | 44.73032 | 25.74777 | 9801 ft | 274 kts | 314° |
| 2026-05-05 17:27 | 44.74330 | 25.72732 | 10435 ft | 292 kts | 315° |
| 2026-05-05 17:27 | 44.75748 | 25.70500 | 10732 ft | 319 kts | 314° |
| 2026-05-05 17:27 | 44.77290 | 25.68061 | 11000 ft | 347 kts | 314° |
| 2026-05-05 17:27 | 44.78946 | 25.65433 | 11395 ft | 366 kts | 314° |
| 2026-05-05 17:28 | 44.80620 | 25.62772 | 12318 ft | 370 kts | 314° |
| 2026-05-05 17:28 | 44.82350 | 25.60028 | 13152 ft | 377 kts | 314° |
| 2026-05-05 17:28 | 44.84107 | 25.57244 | 13972 ft | 383 kts | 314° |
| 2026-05-05 17:28 | 44.85886 | 25.54418 | 14751 ft | 387 kts | 314° |
| 2026-05-05 17:29 | 44.87684 | 25.51554 | 15453 ft | 394 kts | 314° |
| 2026-05-05 17:29 | 44.89511 | 25.48644 | 16231 ft | 397 kts | 314° |
| 2026-05-05 17:29 | 44.91357 | 25.45702 | 16984 ft | 402 kts | 314° |
| 2026-05-05 17:29 | 44.93218 | 25.42733 | 17721 ft | 406 kts | 314° |
| 2026-05-05 17:30 | 44.95078 | 25.39761 | 18422 ft | 411 kts | 314° |
| 2026-05-05 17:30 | 44.96980 | 25.36718 | 19061 ft | 414 kts | 314° |
| 2026-05-05 17:30 | 44.98923 | 25.33692 | 19693 ft | 416 kts | 319° |
| 2026-05-05 17:30 | 45.01224 | 25.31224 | 20297 ft | 416 kts | 328° |
| 2026-05-05 17:31 | 45.03645 | 25.28953 | 20884 ft | 419 kts | 329° |
| 2026-05-05 17:31 | 45.06109 | 25.26706 | 21460 ft | 423 kts | 329° |
| 2026-05-05 17:31 | 45.08586 | 25.24430 | 22045 ft | 426 kts | 328° |
| 2026-05-05 17:31 | 45.11069 | 25.22108 | 22631 ft | 429 kts | 328° |
| 2026-05-05 17:32 | 45.13573 | 25.19766 | 23197 ft | 432 kts | 328° |
| 2026-05-05 17:32 | 45.16102 | 25.17417 | 23717 ft | 435 kts | 328° |
| 2026-05-05 17:32 | 45.18617 | 25.15081 | 24077 ft | 440 kts | 328° |
| 2026-05-05 17:32 | 45.21179 | 25.12690 | 24561 ft | 441 kts | 328° |
| 2026-05-05 17:33 | 45.23748 | 25.10286 | 25029 ft | 443 kts | 328° |
| 2026-05-05 17:33 | 45.26330 | 25.07872 | 25461 ft | 445 kts | 328° |
| 2026-05-05 17:33 | 45.28914 | 25.05457 | 25921 ft | 446 kts | 328° |
| 2026-05-05 17:33 | 45.31510 | 25.03022 | 26334 ft | 448 kts | 328° |
| 2026-05-05 17:34 | 45.34115 | 25.00577 | 26752 ft | 449 kts | 328° |
| 2026-05-05 17:34 | 45.36730 | 24.98121 | 27137 ft | 451 kts | 328° |
| 2026-05-05 17:34 | 45.39354 | 24.95655 | 27519 ft | 453 kts | 328° |
| 2026-05-05 17:34 | 45.41992 | 24.93172 | 27924 ft | 455 kts | 328° |
| 2026-05-05 17:35 | 45.44643 | 24.90673 | 28249 ft | 458 kts | 328° |
| 2026-05-05 17:35 | 45.47303 | 24.88163 | 28593 ft | 460 kts | 328° |
| 2026-05-05 17:35 | 45.49983 | 24.85633 | 28903 ft | 462 kts | 328° |
| 2026-05-05 17:35 | 45.52670 | 24.83092 | 29210 ft | 465 kts | 328° |
| 2026-05-05 17:36 | 45.55336 | 24.80567 | 29565 ft | 467 kts | 328° |
| 2026-05-05 17:36 | 45.58049 | 24.77995 | 29879 ft | 469 kts | 328° |
| 2026-05-05 17:36 | 45.60774 | 24.75409 | 30169 ft | 470 kts | 328° |
| 2026-05-05 17:36 | 45.63517 | 24.72803 | 30406 ft | 473 kts | 327° |
| 2026-05-05 17:37 | 45.66259 | 24.70196 | 30683 ft | 475 kts | 327° |
| 2026-05-05 17:37 | 45.68091 | 24.68451 | 30891 ft | 475 kts | 327° |
| 2026-05-05 17:37 | 45.71765 | 24.64947 | 31402 ft | 473 kts | 327° |
| 2026-05-05 17:37 | 45.74483 | 24.62353 | 31655 ft | 475 kts | 327° |
| 2026-05-05 17:38 | 45.77228 | 24.59729 | 32009 ft | 473 kts | 327° |
| 2026-05-05 17:38 | 45.79970 | 24.57105 | 32393 ft | 472 kts | 327° |
| 2026-05-05 17:38 | 45.82695 | 24.54494 | 32766 ft | 471 kts | 327° |
| 2026-05-05 17:38 | 45.85417 | 24.51883 | 33132 ft | 470 kts | 327° |
| 2026-05-05 17:39 | 45.88137 | 24.49272 | 33492 ft | 469 kts | 327° |
| 2026-05-05 17:39 | 45.90848 | 24.46665 | 33846 ft | 468 kts | 327° |
| 2026-05-05 17:39 | 45.93550 | 24.44063 | 34160 ft | 467 kts | 327° |
| 2026-05-05 17:39 | 45.96249 | 24.41461 | 34413 ft | 467 kts | 327° |
| 2026-05-05 17:40 | 45.98944 | 24.38860 | 34725 ft | 466 kts | 327° |
| 2026-05-05 17:40 | 46.01641 | 24.36255 | 34963 ft | 467 kts | 327° |
| 2026-05-05 17:40 | 46.04301 | 24.33682 | 35228 ft | 467 kts | 327° |
| 2026-05-05 17:40 | 46.06994 | 24.31074 | 35486 ft | 467 kts | 327° |
| 2026-05-05 17:41 | 46.09688 | 24.28462 | 35735 ft | 466 kts | 327° |
| 2026-05-05 17:41 | 46.12380 | 24.25849 | 35986 ft | 466 kts | 327° |
| 2026-05-05 17:41 | 46.15074 | 24.23230 | 36234 ft | 466 kts | 327° |
| 2026-05-05 17:41 | 46.17767 | 24.20609 | 36480 ft | 466 kts | 327° |
| 2026-05-05 17:42 | 46.20459 | 24.17986 | 36730 ft | 466 kts | 327° |
| 2026-05-05 17:42 | 46.23147 | 24.15365 | 36974 ft | 466 kts | 327° |
| 2026-05-05 17:42 | 46.25836 | 24.12738 | 37210 ft | 466 kts | 326° |
| 2026-05-05 17:42 | 46.28521 | 24.10112 | 37441 ft | 466 kts | 326° |
| 2026-05-05 17:43 | 46.31207 | 24.07483 | 37658 ft | 466 kts | 326° |
| 2026-05-05 17:43 | 46.33893 | 24.04851 | 37872 ft | 467 kts | 326° |
| 2026-05-05 17:43 | 46.36578 | 24.02215 | 38080 ft | 467 kts | 326° |
| 2026-05-05 17:43 | 46.38357 | 24.00468 | 38238 ft | 467 kts | 326° |
| 2026-05-05 17:44 | 46.41047 | 23.97823 | 38437 ft | 467 kts | 326° |
| 2026-05-05 17:44 | 46.43731 | 23.95181 | 38680 ft | 466 kts | 326° |
| 2026-05-05 17:44 | 46.47284 | 23.91678 | 38909 ft | 466 kts | 326° |
| 2026-05-05 17:44 | 46.49961 | 23.89034 | 39037 ft | 466 kts | 326° |
| 2026-05-05 17:45 | 46.51777 | 23.87240 | 39141 ft | 466 kts | 326° |
| 2026-05-05 17:45 | 46.54422 | 23.84623 | 39292 ft | 466 kts | 326° |
| 2026-05-05 17:45 | 46.57107 | 23.81963 | 39415 ft | 467 kts | 326° |
| 2026-05-05 17:45 | 46.59792 | 23.79300 | 39570 ft | 467 kts | 326° |
| 2026-05-05 17:46 | 46.62479 | 23.76633 | 39710 ft | 468 kts | 326° |
| 2026-05-05 17:46 | 46.65167 | 23.73960 | 39844 ft | 468 kts | 326° |
| 2026-05-05 17:46 | 46.67858 | 23.71282 | 39937 ft | 470 kts | 326° |
| 2026-05-05 17:47 | 46.73268 | 23.65887 | 39929 ft | 470 kts | 326° |
| 2026-05-05 17:47 | 46.78649 | 23.60508 | 39931 ft | 467 kts | 326° |
| 2026-05-05 17:48 | 46.84014 | 23.55132 | 39938 ft | 467 kts | 326° |
| 2026-05-05 17:48 | 46.89339 | 23.49782 | 39932 ft | 468 kts | 325° |
| 2026-05-05 17:49 | 46.94705 | 23.44378 | 39939 ft | 469 kts | 325° |
| 2026-05-05 17:49 | 47.00074 | 23.38957 | 39941 ft | 469 kts | 325° |
| 2026-05-05 17:50 | 47.05440 | 23.33526 | 39941 ft | 469 kts | 325° |
| 2026-05-05 17:50 | 47.10810 | 23.28077 | 39947 ft | 469 kts | 325° |
| 2026-05-05 17:51 | 47.16182 | 23.22614 | 39941 ft | 470 kts | 325° |
| 2026-05-05 17:51 | 47.21557 | 23.17133 | 39940 ft | 469 kts | 325° |
| 2026-05-05 17:52 | 47.26877 | 23.11678 | 39938 ft | 469 kts | 324° |
| 2026-05-05 17:52 | 47.32182 | 23.05977 | 39933 ft | 468 kts | 324° |
| 2026-05-05 17:53 | 47.37445 | 23.00413 | 39923 ft | 468 kts | 324° |
| 2026-05-05 17:53 | 47.42730 | 22.94766 | 39933 ft | 469 kts | 324° |
| 2026-05-05 17:54 | 47.48000 | 22.89137 | 39931 ft | 469 kts | 324° |
| 2026-05-05 17:54 | 47.53291 | 22.83467 | 39936 ft | 469 kts | 324° |
| 2026-05-05 17:55 | 47.58582 | 22.77782 | 39938 ft | 469 kts | 324° |
| 2026-05-05 17:55 | 47.63871 | 22.72087 | 39938 ft | 469 kts | 323° |
| 2026-05-05 17:56 | 47.69151 | 22.66384 | 39939 ft | 469 kts | 323° |
| 2026-05-05 17:56 | 47.74393 | 22.60711 | 39933 ft | 469 kts | 323° |
| 2026-05-05 17:57 | 47.79663 | 22.54990 | 39929 ft | 469 kts | 323° |
| 2026-05-05 17:57 | 47.84930 | 22.49259 | 39921 ft | 469 kts | 323° |
| 2026-05-05 17:58 | 47.90199 | 22.43511 | 39921 ft | 469 kts | 323° |
| 2026-05-05 17:58 | 47.95466 | 22.37751 | 39919 ft | 468 kts | 323° |
| 2026-05-05 17:59 | 48.00713 | 22.31996 | 39922 ft | 468 kts | 323° |
| 2026-05-05 17:59 | 48.05954 | 22.26234 | 39918 ft | 468 kts | 323° |
| 2026-05-05 18:00 | 48.11163 | 22.20494 | 39916 ft | 467 kts | 322° |
| 2026-05-05 18:00 | 48.16408 | 22.14697 | 39916 ft | 468 kts | 322° |
| 2026-05-05 18:01 | 48.21644 | 22.08895 | 39913 ft | 469 kts | 322° |
| 2026-05-05 18:01 | 48.26898 | 22.03059 | 39914 ft | 470 kts | 322° |
| 2026-05-05 18:02 | 48.32159 | 21.97199 | 39916 ft | 471 kts | 322° |
| 2026-05-05 18:02 | 48.37508 | 21.91476 | 39930 ft | 472 kts | 328° |
| 2026-05-05 18:03 | 48.43095 | 21.86351 | 39914 ft | 472 kts | 327° |
| 2026-05-05 18:03 | 48.48688 | 21.81178 | 39915 ft | 471 kts | 327° |
| 2026-05-05 18:04 | 48.54282 | 21.76003 | 39912 ft | 471 kts | 327° |
| 2026-05-05 18:04 | 48.59858 | 21.70826 | 39915 ft | 470 kts | 327° |
| 2026-05-05 18:05 | 48.65381 | 21.65687 | 39910 ft | 469 kts | 327° |
| 2026-05-05 18:05 | 48.70951 | 21.60489 | 39911 ft | 470 kts | 327° |
| 2026-05-05 18:06 | 48.76516 | 21.55283 | 39382 ft | 469 kts | 327° |
| 2026-05-05 18:06 | 48.78354 | 21.53559 | 38953 ft | 470 kts | 327° |
| 2026-05-05 18:06 | 48.82076 | 21.50066 | 38195 ft | 468 kts | 327° |
| 2026-05-05 18:06 | 48.84839 | 21.47470 | 37535 ft | 467 kts | 327° |
| 2026-05-05 18:07 | 48.87563 | 21.44907 | 36968 ft | 465 kts | 327° |
| 2026-05-05 18:07 | 48.90307 | 21.42320 | 36381 ft | 463 kts | 326° |
| 2026-05-05 18:07 | 48.93042 | 21.39738 | 35798 ft | 463 kts | 326° |
| 2026-05-05 18:07 | 48.95789 | 21.37143 | 35185 ft | 466 kts | 326° |
| 2026-05-05 18:08 | 48.98564 | 21.34517 | 34553 ft | 471 kts | 326° |
| 2026-05-05 18:08 | 49.01358 | 21.31870 | 33901 ft | 475 kts | 326° |
| 2026-05-05 18:08 | 49.04171 | 21.29202 | 33185 ft | 476 kts | 326° |
| 2026-05-05 18:08 | 49.06988 | 21.26527 | 32490 ft | 477 kts | 326° |
| 2026-05-05 18:09 | 49.09804 | 21.23848 | 31775 ft | 477 kts | 327° |
| 2026-05-05 18:09 | 49.12591 | 21.21194 | 31031 ft | 479 kts | 326° |
| 2026-05-05 18:09 | 49.15433 | 21.18483 | 30256 ft | 486 kts | 326° |
| 2026-05-05 18:09 | 49.18318 | 21.15725 | 29426 ft | 489 kts | 326° |
| 2026-05-05 18:10 | 49.21196 | 21.12976 | 28625 ft | 485 kts | 326° |
| 2026-05-05 18:10 | 49.24044 | 21.10252 | 27845 ft | 481 kts | 326° |
| 2026-05-05 18:10 | 49.26875 | 21.07533 | 27079 ft | 477 kts | 326° |
| 2026-05-05 18:10 | 49.29680 | 21.04839 | 26319 ft | 474 kts | 326° |
| 2026-05-05 18:11 | 49.32445 | 21.02111 | 25567 ft | 468 kts | 321° |
| 2026-05-05 18:11 | 49.34845 | 20.98807 | 24847 ft | 461 kts | 310° |
| 2026-05-05 18:11 | 49.36881 | 20.95132 | 24131 ft | 456 kts | 308° |
| 2026-05-05 18:11 | 49.38917 | 20.91422 | 23406 ft | 453 kts | 307° |
| 2026-05-05 18:12 | 49.40931 | 20.87736 | 22678 ft | 448 kts | 307° |
| 2026-05-05 18:12 | 49.42927 | 20.84084 | 21973 ft | 443 kts | 307° |
| 2026-05-05 18:12 | 49.44894 | 20.80479 | 21278 ft | 438 kts | 307° |
| 2026-05-05 18:12 | 49.46842 | 20.76908 | 20596 ft | 433 kts | 307° |
| 2026-05-05 18:13 | 49.48773 | 20.73362 | 19918 ft | 429 kts | 307° |
| 2026-05-05 18:13 | 49.50682 | 20.69851 | 19251 ft | 425 kts | 307° |
| 2026-05-05 18:13 | 49.52568 | 20.66376 | 18629 ft | 421 kts | 307° |
| 2026-05-05 18:13 | 49.54442 | 20.62919 | 17956 ft | 420 kts | 307° |
| 2026-05-05 18:14 | 49.56310 | 20.59471 | 17305 ft | 418 kts | 307° |
| 2026-05-05 18:14 | 49.58169 | 20.56033 | 16861 ft | 413 kts | 307° |
| 2026-05-05 18:14 | 49.60001 | 20.52642 | 16140 ft | 409 kts | 307° |
| 2026-05-05 18:14 | 49.62068 | 20.49620 | 15270 ft | 413 kts | 323° |
| 2026-05-05 18:15 | 49.64570 | 20.47409 | 14416 ft | 415 kts | 330° |
| 2026-05-05 18:15 | 49.67077 | 20.45424 | 13580 ft | 396 kts | 330° |
| 2026-05-05 18:15 | 49.69453 | 20.43573 | 12673 ft | 368 kts | 330° |
| 2026-05-05 18:15 | 49.71655 | 20.41807 | 11851 ft | 345 kts | 329° |
| 2026-05-05 18:16 | 49.73726 | 20.40125 | 11087 ft | 326 kts | 328° |
| 2026-05-05 18:16 | 49.75687 | 20.38548 | 10370 ft | 310 kts | 328° |
| 2026-05-05 18:16 | 49.77525 | 20.37075 | 10056 ft | 282 kts | 329° |
| 2026-05-05 18:16 | 49.79190 | 20.35741 | 10038 ft | 263 kts | 328° |
| 2026-05-05 18:17 | 49.80746 | 20.34483 | 9995 ft | 247 kts | 328° |
| 2026-05-05 18:17 | 49.82262 | 20.33255 | 9171 ft | 256 kts | 328° |
| 2026-05-05 18:17 | 49.83834 | 20.31986 | 8875 ft | 252 kts | 328° |
| 2026-05-05 18:17 | 49.85463 | 20.30666 | 7961 ft | 275 kts | 328° |
| 2026-05-05 18:18 | 49.87109 | 20.29346 | 7963 ft | 254 kts | 328° |
| 2026-05-05 18:18 | 49.88680 | 20.28082 | 7346 ft | 258 kts | 327° |
| 2026-05-05 18:18 | 49.90260 | 20.26798 | 7035 ft | 253 kts | 327° |
| 2026-05-05 18:18 | 49.91830 | 20.25523 | 6845 ft | 257 kts | 327° |
| 2026-05-05 18:19 | 49.93417 | 20.24238 | 6620 ft | 257 kts | 327° |
| 2026-05-05 18:19 | 49.94985 | 20.22970 | 6391 ft | 257 kts | 327° |
| 2026-05-05 18:19 | 49.96566 | 20.21688 | 6161 ft | 252 kts | 327° |
| 2026-05-05 18:19 | 49.98099 | 20.20445 | 5945 ft | 250 kts | 327° |
| 2026-05-05 18:20 | 49.99658 | 20.19173 | 5664 ft | 255 kts | 327° |
| 2026-05-05 18:20 | 50.01228 | 20.17898 | 5528 ft | 253 kts | 327° |
| 2026-05-05 18:20 | 50.02788 | 20.16632 | 5342 ft | 253 kts | 327° |
| 2026-05-05 18:20 | 50.04333 | 20.15373 | 4970 ft | 249 kts | 327° |
| 2026-05-05 18:21 | 50.05867 | 20.14122 | 4476 ft | 250 kts | 327° |
| 2026-05-05 18:21 | 50.07404 | 20.12870 | 4381 ft | 247 kts | 327° |
| 2026-05-05 18:21 | 50.08922 | 20.11633 | 4206 ft | 246 kts | 327° |
| 2026-05-05 18:21 | 50.10375 | 20.10262 | 4021 ft | 241 kts | 312° |
| 2026-05-05 18:22 | 50.11274 | 20.08188 | 4007 ft | 227 kts | 287° |
| 2026-05-05 18:22 | 50.11509 | 20.05811 | 4025 ft | 221 kts | 262° |
| 2026-05-05 18:22 | 50.11236 | 20.03522 | 4022 ft | 216 kts | 253° |
| 2026-05-05 18:22 | 50.10919 | 20.01232 | 4031 ft | 217 kts | 253° |
| 2026-05-05 18:23 | 50.10597 | 19.98902 | 4023 ft | 211 kts | 254° |
| 2026-05-05 18:23 | 50.10310 | 19.96812 | 4001 ft | 190 kts | 253° |
| 2026-05-05 18:23 | 50.10040 | 19.94943 | 3976 ft | 163 kts | 252° |
| 2026-05-05 18:23 | 50.09818 | 19.93338 | 3722 ft | 144 kts | 252° |
| 2026-05-05 18:24 | 50.09606 | 19.91816 | 3123 ft | 143 kts | 251° |
| 2026-05-05 18:24 | 50.09392 | 19.90312 | 2570 ft | 147 kts | 252° |
| 2026-05-05 18:24 | 50.09180 | 19.88740 | 2128 ft | 147 kts | 253° |
| 2026-05-05 18:24 | 50.08968 | 19.87155 | 1655 ft | 149 kts | 252° |
| 2026-05-05 18:25 | 50.08756 | 19.85609 | 1544 ft | 155 kts | 255° |
| 2026-05-05 18:25 | 50.08683 | 19.85042 | 1466 ft | 158 kts | 253° |
| 2026-05-05 18:25 | 50.08311 | 19.82381 | 1152 ft | 151 kts | 260° |
| 2026-05-05 18:25 | 50.08094 | 19.80768 | 937 ft | 156 kts | 258° |
| 2026-05-05 18:26 | 50.07873 | 19.79207 | 795 ft | 126 kts | 257° |
| 2026-05-05 18:26 | 50.07738 | 19.78219 | 794 ft | 60 kts | 257° |
| 2026-05-05 18:26 | 50.07656 | 19.77630 | 794 ft | 52 kts | 257° |
| 2026-05-05 18:26 | 50.07590 | 19.77160 | 799 ft | 40 kts | 258° |
| 2026-05-05 18:27 | 50.07519 | 19.76862 | 801 ft | 15 kts | 208° |
| 2026-05-05 18:27 | 50.07428 | 19.76868 | 796 ft | 15 kts | 171° |
| 2026-05-05 18:27 | 50.07371 | 19.76886 | 795 ft | 0 kts | 166° |
| 2026-05-05 18:28 | 50.07369 | 19.76887 | 795 ft | 1 kts | 166° |
| 2026-05-05 18:28 | 50.07355 | 19.76892 | 795 ft | 3 kts | 166° |
| 2026-05-05 18:29 | 50.07332 | 19.76911 | 794 ft | 5 kts | 139° |
| 2026-05-05 18:29 | 50.07317 | 19.76965 | 794 ft | 8 kts | 99° |
| 2026-05-05 18:29 | 50.07322 | 19.77064 | 794 ft | 12 kts | 77° |
| 2026-05-05 18:29 | 50.07348 | 19.77242 | 794 ft | 22 kts | 77° |
| 2026-05-05 18:30 | 50.07388 | 19.77531 | 794 ft | 32 kts | 78° |
| 2026-05-05 18:30 | 50.07442 | 19.77925 | 794 ft | 42 kts | 78° |
| 2026-05-05 18:30 | 50.07507 | 19.78399 | 794 ft | 46 kts | 78° |
| 2026-05-05 18:30 | 50.07575 | 19.78869 | 794 ft | 42 kts | 78° |
| 2026-05-05 18:31 | 50.07615 | 19.79163 | 794 ft | 25 kts | 77° |
| 2026-05-05 18:31 | 50.07653 | 19.79431 | 794 ft | 25 kts | 78° |
| 2026-05-05 18:31 | 50.07678 | 19.79651 | 794 ft | 8 kts | 98° |
| 2026-05-05 18:31 | 50.07667 | 19.79677 | 794 ft | 1 kts | 138° |
| 2026-05-05 18:32 | 50.07632 | 19.79702 | 794 ft | 10 kts | 162° |
| 2026-05-05 18:32 | 50.07529 | 19.79740 | 796 ft | 20 kts | 167° |
| 2026-05-05 18:32 | 50.07413 | 19.79779 | 794 ft | 13 kts | 162° |
| 2026-05-05 18:32 | 50.07379 | 19.79859 | 794 ft | 8 kts | 91° |
| 2026-05-05 18:33 | 50.07393 | 19.79962 | 794 ft | 11 kts | 77° |
| 2026-05-05 18:33 | 50.07403 | 19.80044 | 794 ft | 10 kts | 87° |
| 2026-05-05 18:33 | 50.07379 | 19.80092 | 794 ft | 4 kts | 161° |
| 2026-05-05 18:33 | 50.07348 | 19.80102 | 794 ft | 6 kts | 168° |
| 2026-05-05 18:34 | 50.07337 | 19.80105 | 794 ft | 0 kts | 171° |
| 2026-05-05 18:34 | 50.07331 | 19.80106 | 794 ft | 1 kts | 170° |
| 2026-05-05 18:34 | 50.07326 | 19.80108 | 794 ft | 0 kts | 169° |